sensor_id;sensor_type;location;lat;lon;timestamp;temperature;humidity
26270;DHT22;15937;50.612;6.656;2024-01-15T00:01:01;0.90;99.90
26270;DHT22;15937;50.612;6.656;2024-01-15T00:05:03;0.90;99.90
26270;DHT22;15937;50.612;6.656;2024-01-15T00:09:05;0.90;99.90
26270;DHT22;15937;50.612;6.656;2024-01-15T00:13:08;0.90;99.90
26270;DHT22;15937;50.612;6.656;2024-01-15T00:17:10;0.80;99.90
26270;DHT22;15937;50.612;6.656;2024-01-15T00:21:12;0.80;99.90
26270;DHT22;15937;50.612;6.656;2024-01-15T00:25:14;0.80;99.90
26270;DHT22;15937;50.612;6.656;2024-01-15T00:29:16;0.70;99.90
26270;DHT22;15937;50.612;6.656;2024-01-15T00:33:18;0.70;99.90
26270;DHT22;15937;50.612;6.656;2024-01-15T00:37:20;0.70;99.90
26270;DHT22;15937;50.612;6.656;2024-01-15T00:41:23;0.70;99.90
26270;DHT22;15937;50.612;6.656;2024-01-15T00:45:25;0.70;99.90
26270;DHT22;15937;50.612;6.656;2024-01-15T00:49:27;0.70;99.90
26270;DHT22;15937;50.612;6.656;2024-01-15T00:53:30;0.60;99.90
26270;DHT22;15937;50.612;6.656;2024-01-15T00:57:31;0.60;99.90
26270;DHT22;15937;50.612;6.656;2024-01-15T01:01:34;0.60;99.90
26270;DHT22;15937;50.612;6.656;2024-01-15T01:05:41;0.70;99.90
26270;DHT22;15937;50.612;6.656;2024-01-15T01:09:43;0.70;99.90
26270;DHT22;15937;50.612;6.656;2024-01-15T01:13:45;0.70;99.90
26270;DHT22;15937;50.612;6.656;2024-01-15T01:17:47;0.80;99.90
26270;DHT22;15937;50.612;6.656;2024-01-15T01:26:08;0.80;99.90
26270;DHT22;15937;50.612;6.656;2024-01-15T01:30:10;0.80;99.90
26270;DHT22;15937;50.612;6.656;2024-01-15T01:34:16;0.90;99.90
26270;DHT22;15937;50.612;6.656;2024-01-15T01:38:19;1.00;99.90
26270;DHT22;15937;50.612;6.656;2024-01-15T01:42:20;1.00;99.90
26270;DHT22;15937;50.612;6.656;2024-01-15T01:46:23;1.00;99.90
26270;DHT22;15937;50.612;6.656;2024-01-15T01:50:26;1.00;99.90
26270;DHT22;15937;50.612;6.656;2024-01-15T01:54:31;1.00;99.90
26270;DHT22;15937;50.612;6.656;2024-01-15T01:58:33;1.00;99.90
26270;DHT22;15937;50.612;6.656;2024-01-15T02:02:36;1.00;99.90
26270;DHT22;15937;50.612;6.656;2024-01-15T02:06:37;1.00;99.90
26270;DHT22;15937;50.612;6.656;2024-01-15T02:10:39;1.00;99.90
26270;DHT22;15937;50.612;6.656;2024-01-15T02:14:41;1.00;99.90
26270;DHT22;15937;50.612;6.656;2024-01-15T02:18:45;1.10;99.90
26270;DHT22;15937;50.612;6.656;2024-01-15T02:22:47;1.10;99.90
26270;DHT22;15937;50.612;6.656;2024-01-15T02:26:49;1.10;99.90
26270;DHT22;15937;50.612;6.656;2024-01-15T02:30:52;1.10;99.90
26270;DHT22;15937;50.612;6.656;2024-01-15T02:34:54;1.00;99.90
26270;DHT22;15937;50.612;6.656;2024-01-15T02:38:58;1.00;99.90
26270;DHT22;15937;50.612;6.656;2024-01-15T02:43:00;1.00;99.90
26270;DHT22;15937;50.612;6.656;2024-01-15T02:47:02;1.00;99.90
26270;DHT22;15937;50.612;6.656;2024-01-15T02:51:04;1.10;99.90
26270;DHT22;15937;50.612;6.656;2024-01-15T02:55:07;1.00;99.90
26270;DHT22;15937;50.612;6.656;2024-01-15T02:59:09;1.10;99.90
26270;DHT22;15937;50.612;6.656;2024-01-15T03:03:11;1.00;99.90
26270;DHT22;15937;50.612;6.656;2024-01-15T03:07:13;1.00;99.90
26270;DHT22;15937;50.612;6.656;2024-01-15T03:11:15;1.00;99.90
26270;DHT22;15937;50.612;6.656;2024-01-15T03:15:17;1.00;99.90
26270;DHT22;15937;50.612;6.656;2024-01-15T03:19:22;1.00;99.90
26270;DHT22;15937;50.612;6.656;2024-01-15T03:23:24;0.90;99.90
26270;DHT22;15937;50.612;6.656;2024-01-15T03:27:26;0.90;99.90
26270;DHT22;15937;50.612;6.656;2024-01-15T03:31:28;0.80;99.90
26270;DHT22;15937;50.612;6.656;2024-01-15T03:35:31;0.90;99.90
26270;DHT22;15937;50.612;6.656;2024-01-15T03:39:33;0.80;99.90
26270;DHT22;15937;50.612;6.656;2024-01-15T03:43:35;0.80;99.90
26270;DHT22;15937;50.612;6.656;2024-01-15T03:47:37;0.80;99.90
26270;DHT22;15937;50.612;6.656;2024-01-15T03:51:38;0.80;99.90
26270;DHT22;15937;50.612;6.656;2024-01-15T03:55:41;0.80;99.90
26270;DHT22;15937;50.612;6.656;2024-01-15T03:59:44;0.80;99.90
26270;DHT22;15937;50.612;6.656;2024-01-15T04:03:49;0.80;99.90
26270;DHT22;15937;50.612;6.656;2024-01-15T04:07:51;0.80;99.90
26270;DHT22;15937;50.612;6.656;2024-01-15T04:11:53;0.90;99.90
26270;DHT22;15937;50.612;6.656;2024-01-15T04:15:54;0.80;99.90
26270;DHT22;15937;50.612;6.656;2024-01-15T04:19:58;0.80;99.90
26270;DHT22;15937;50.612;6.656;2024-01-15T04:24:00;0.80;99.90
26270;DHT22;15937;50.612;6.656;2024-01-15T04:28:01;0.90;99.90
26270;DHT22;15937;50.612;6.656;2024-01-15T04:32:04;0.90;99.90
26270;DHT22;15937;50.612;6.656;2024-01-15T04:36:06;0.90;99.90
26270;DHT22;15937;50.612;6.656;2024-01-15T04:40:09;0.90;99.90
26270;DHT22;15937;50.612;6.656;2024-01-15T04:44:14;0.90;99.90
26270;DHT22;15937;50.612;6.656;2024-01-15T04:48:16;0.90;99.90
26270;DHT22;15937;50.612;6.656;2024-01-15T04:52:18;1.00;99.90
26270;DHT22;15937;50.612;6.656;2024-01-15T04:56:20;1.00;99.90
26270;DHT22;15937;50.612;6.656;2024-01-15T05:00:22;0.90;99.90
26270;DHT22;15937;50.612;6.656;2024-01-15T05:04:24;1.00;99.90
26270;DHT22;15937;50.612;6.656;2024-01-15T05:08:28;1.00;99.90
26270;DHT22;15937;50.612;6.656;2024-01-15T05:12:29;1.00;99.90
26270;DHT22;15937;50.612;6.656;2024-01-15T05:16:31;1.00;99.90
26270;DHT22;15937;50.612;6.656;2024-01-15T05:20:34;1.00;99.90
26270;DHT22;15937;50.612;6.656;2024-01-15T05:24:36;1.00;99.90
26270;DHT22;15937;50.612;6.656;2024-01-15T05:28:40;1.00;99.90
26270;DHT22;15937;50.612;6.656;2024-01-15T05:32:42;0.90;99.90
26270;DHT22;15937;50.612;6.656;2024-01-15T05:36:44;0.90;99.90
26270;DHT22;15937;50.612;6.656;2024-01-15T05:40:49;0.90;99.90
26270;DHT22;15937;50.612;6.656;2024-01-15T05:44:51;0.90;99.90
26270;DHT22;15937;50.612;6.656;2024-01-15T05:48:53;0.90;99.90
26270;DHT22;15937;50.612;6.656;2024-01-15T05:52:55;1.00;99.90
26270;DHT22;15937;50.612;6.656;2024-01-15T05:56:58;1.00;99.90
26270;DHT22;15937;50.612;6.656;2024-01-15T06:01:03;1.00;99.90
26270;DHT22;15937;50.612;6.656;2024-01-15T06:05:06;1.00;99.90
26270;DHT22;15937;50.612;6.656;2024-01-15T06:09:09;1.00;99.90
26270;DHT22;15937;50.612;6.656;2024-01-15T06:13:11;1.00;99.90
26270;DHT22;15937;50.612;6.656;2024-01-15T06:17:13;1.00;99.90
26270;DHT22;15937;50.612;6.656;2024-01-15T06:21:16;1.00;99.90
26270;DHT22;15937;50.612;6.656;2024-01-15T06:25:18;1.00;99.90
26270;DHT22;15937;50.612;6.656;2024-01-15T06:29:20;1.00;99.90
26270;DHT22;15937;50.612;6.656;2024-01-15T06:37:30;1.00;99.90
26270;DHT22;15937;50.612;6.656;2024-01-15T06:41:34;0.90;99.90
26270;DHT22;15937;50.612;6.656;2024-01-15T06:45:38;0.80;99.90
26270;DHT22;15937;50.612;6.656;2024-01-15T06:49:40;0.90;99.90
26270;DHT22;15937;50.612;6.656;2024-01-15T06:53:42;0.80;99.90
26270;DHT22;15937;50.612;6.656;2024-01-15T06:57:44;0.90;99.90
26270;DHT22;15937;50.612;6.656;2024-01-15T07:01:46;0.80;99.90
26270;DHT22;15937;50.612;6.656;2024-01-15T07:05:48;0.70;99.90
26270;DHT22;15937;50.612;6.656;2024-01-15T07:09:50;0.80;99.90
26270;DHT22;15937;50.612;6.656;2024-01-15T07:13:54;0.70;99.90
26270;DHT22;15937;50.612;6.656;2024-01-15T07:22:06;0.80;99.90
26270;DHT22;15937;50.612;6.656;2024-01-15T07:26:11;0.90;99.90
26270;DHT22;15937;50.612;6.656;2024-01-15T07:30:13;0.90;99.90
26270;DHT22;15937;50.612;6.656;2024-01-15T07:34:15;0.90;99.90
26270;DHT22;15937;50.612;6.656;2024-01-15T07:38:18;1.00;99.90
26270;DHT22;15937;50.612;6.656;2024-01-15T07:42:20;0.90;99.90
26270;DHT22;15937;50.612;6.656;2024-01-15T07:46:22;1.00;99.90
26270;DHT22;15937;50.612;6.656;2024-01-15T07:50:24;0.90;99.90
26270;DHT22;15937;50.612;6.656;2024-01-15T07:54:26;0.90;99.90
26270;DHT22;15937;50.612;6.656;2024-01-15T07:58:28;0.90;99.90
26270;DHT22;15937;50.612;6.656;2024-01-15T08:02:30;0.90;99.90
26270;DHT22;15937;50.612;6.656;2024-01-15T08:06:38;1.00;99.90
26270;DHT22;15937;50.612;6.656;2024-01-15T08:10:41;1.00;99.90
26270;DHT22;15937;50.612;6.656;2024-01-15T08:18:51;1.10;99.90
26270;DHT22;15937;50.612;6.656;2024-01-15T08:22:53;1.20;99.90
26270;DHT22;15937;50.612;6.656;2024-01-15T08:27:00;1.20;99.90
26270;DHT22;15937;50.612;6.656;2024-01-15T08:31:01;1.20;99.90
26270;DHT22;15937;50.612;6.656;2024-01-15T08:35:04;1.30;99.90
26270;DHT22;15937;50.612;6.656;2024-01-15T08:39:07;1.30;99.90
26270;DHT22;15937;50.612;6.656;2024-01-15T08:43:10;1.40;99.90
26270;DHT22;15937;50.612;6.656;2024-01-15T08:47:12;1.40;99.90
26270;DHT22;15937;50.612;6.656;2024-01-15T08:51:14;1.40;99.90
26270;DHT22;15937;50.612;6.656;2024-01-15T08:55:16;1.40;99.90
26270;DHT22;15937;50.612;6.656;2024-01-15T08:59:18;1.40;99.90
26270;DHT22;15937;50.612;6.656;2024-01-15T09:03:26;1.50;99.90
26270;DHT22;15937;50.612;6.656;2024-01-15T09:07:28;1.50;99.90
26270;DHT22;15937;50.612;6.656;2024-01-15T09:11:30;1.50;99.90
26270;DHT22;15937;50.612;6.656;2024-01-15T09:15:33;1.50;99.90
26270;DHT22;15937;50.612;6.656;2024-01-15T09:19:35;1.50;99.90
26270;DHT22;15937;50.612;6.656;2024-01-15T09:23:38;1.60;99.90
26270;DHT22;15937;50.612;6.656;2024-01-15T09:27:40;1.60;99.90
26270;DHT22;15937;50.612;6.656;2024-01-15T09:31:42;1.60;99.90
26270;DHT22;15937;50.612;6.656;2024-01-15T09:35:44;1.60;99.90
26270;DHT22;15937;50.612;6.656;2024-01-15T09:39:46;1.60;99.90
26270;DHT22;15937;50.612;6.656;2024-01-15T09:43:50;1.60;99.90
26270;DHT22;15937;50.612;6.656;2024-01-15T09:47:54;1.60;99.90
26270;DHT22;15937;50.612;6.656;2024-01-15T09:51:57;1.50;99.90
26270;DHT22;15937;50.612;6.656;2024-01-15T09:56:12;1.50;99.90
26270;DHT22;15937;50.612;6.656;2024-01-15T10:00:17;1.50;99.90
26270;DHT22;15937;50.612;6.656;2024-01-15T10:04:19;1.50;99.90
26270;DHT22;15937;50.612;6.656;2024-01-15T10:08:22;1.50;99.90
26270;DHT22;15937;50.612;6.656;2024-01-15T10:12:25;1.30;99.90
26270;DHT22;15937;50.612;6.656;2024-01-15T10:16:30;1.30;99.90
26270;DHT22;15937;50.612;6.656;2024-01-15T10:20:32;1.30;99.90
26270;DHT22;15937;50.612;6.656;2024-01-15T10:24:36;1.40;99.90
26270;DHT22;15937;50.612;6.656;2024-01-15T10:28:38;1.50;99.90
26270;DHT22;15937;50.612;6.656;2024-01-15T10:32:39;1.50;99.90
26270;DHT22;15937;50.612;6.656;2024-01-15T10:36:45;1.50;99.90
26270;DHT22;15937;50.612;6.656;2024-01-15T10:40:53;1.60;99.90
26270;DHT22;15937;50.612;6.656;2024-01-15T10:44:55;1.70;99.90
26270;DHT22;15937;50.612;6.656;2024-01-15T10:48:57;1.60;99.90
26270;DHT22;15937;50.612;6.656;2024-01-15T10:53:00;1.60;99.90
26270;DHT22;15937;50.612;6.656;2024-01-15T10:57:03;1.40;99.90
26270;DHT22;15937;50.612;6.656;2024-01-15T11:01:05;1.30;99.90
26270;DHT22;15937;50.612;6.656;2024-01-15T11:05:07;1.50;99.90
26270;DHT22;15937;50.612;6.656;2024-01-15T11:09:10;1.50;99.90
26270;DHT22;15937;50.612;6.656;2024-01-15T11:13:22;1.50;99.90
26270;DHT22;15937;50.612;6.656;2024-01-15T11:18:01;1.50;99.90
26270;DHT22;15937;50.612;6.656;2024-01-15T11:22:06;1.50;99.90
26270;DHT22;15937;50.612;6.656;2024-01-15T11:26:32;1.70;99.90
26270;DHT22;15937;50.612;6.656;2024-01-15T11:30:34;1.60;99.90
26270;DHT22;15937;50.612;6.656;2024-01-15T11:38:52;1.70;99.90
26270;DHT22;15937;50.612;6.656;2024-01-15T11:42:54;1.80;99.90
26270;DHT22;15937;50.612;6.656;2024-01-15T11:47:01;1.60;99.90
26270;DHT22;15937;50.612;6.656;2024-01-15T11:51:07;1.70;99.90
26270;DHT22;15937;50.612;6.656;2024-01-15T11:55:35;1.80;99.90
26270;DHT22;15937;50.612;6.656;2024-01-15T11:59:39;1.90;99.90
26270;DHT22;15937;50.612;6.656;2024-01-15T12:03:42;1.80;99.90
26270;DHT22;15937;50.612;6.656;2024-01-15T12:07:47;1.70;99.90
26270;DHT22;15937;50.612;6.656;2024-01-15T12:12:00;1.90;99.90
26270;DHT22;15937;50.612;6.656;2024-01-15T12:16:07;1.70;99.90
26270;DHT22;15937;50.612;6.656;2024-01-15T12:20:10;1.60;99.90
26270;DHT22;15937;50.612;6.656;2024-01-15T12:24:12;1.60;99.90
26270;DHT22;15937;50.612;6.656;2024-01-15T12:28:18;1.50;99.90
26270;DHT22;15937;50.612;6.656;2024-01-15T12:32:20;1.60;99.90
26270;DHT22;15937;50.612;6.656;2024-01-15T12:36:23;1.60;99.90
26270;DHT22;15937;50.612;6.656;2024-01-15T12:40:26;1.60;99.90
26270;DHT22;15937;50.612;6.656;2024-01-15T12:44:28;1.80;99.90
26270;DHT22;15937;50.612;6.656;2024-01-15T12:48:30;1.70;99.90
26270;DHT22;15937;50.612;6.656;2024-01-15T12:52:35;1.70;99.90
26270;DHT22;15937;50.612;6.656;2024-01-15T12:56:39;1.90;99.90
26270;DHT22;15937;50.612;6.656;2024-01-15T13:00:43;2.00;99.90
26270;DHT22;15937;50.612;6.656;2024-01-15T13:04:45;2.40;99.90
26270;DHT22;15937;50.612;6.656;2024-01-15T13:08:49;2.50;99.90
26270;DHT22;15937;50.612;6.656;2024-01-15T13:12:51;2.30;99.90
26270;DHT22;15937;50.612;6.656;2024-01-15T13:16:53;2.20;99.90
26270;DHT22;15937;50.612;6.656;2024-01-15T13:20:55;2.20;99.90
26270;DHT22;15937;50.612;6.656;2024-01-15T13:24:58;2.60;99.90
26270;DHT22;15937;50.612;6.656;2024-01-15T13:29:01;2.20;99.90
26270;DHT22;15937;50.612;6.656;2024-01-15T13:33:03;2.20;99.90
26270;DHT22;15937;50.612;6.656;2024-01-15T13:37:07;2.00;99.90
26270;DHT22;15937;50.612;6.656;2024-01-15T13:41:11;1.70;99.90
26270;DHT22;15937;50.612;6.656;2024-01-15T13:45:14;1.40;99.90
26270;DHT22;15937;50.612;6.656;2024-01-15T13:49:19;1.30;99.90
26270;DHT22;15937;50.612;6.656;2024-01-15T13:53:23;1.30;99.90
26270;DHT22;15937;50.612;6.656;2024-01-15T13:57:25;1.20;99.90
26270;DHT22;15937;50.612;6.656;2024-01-15T14:01:27;1.30;99.90
26270;DHT22;15937;50.612;6.656;2024-01-15T14:05:30;1.30;99.90
26270;DHT22;15937;50.612;6.656;2024-01-15T14:09:32;1.10;99.90
26270;DHT22;15937;50.612;6.656;2024-01-15T14:13:34;1.20;99.90
26270;DHT22;15937;50.612;6.656;2024-01-15T14:17:37;1.20;99.90
26270;DHT22;15937;50.612;6.656;2024-01-15T14:21:39;1.30;99.90
26270;DHT22;15937;50.612;6.656;2024-01-15T14:25:41;1.10;99.90
26270;DHT22;15937;50.612;6.656;2024-01-15T14:29:43;1.20;99.90
26270;DHT22;15937;50.612;6.656;2024-01-15T14:33:48;1.30;99.90
26270;DHT22;15937;50.612;6.656;2024-01-15T14:37:50;1.30;99.90
26270;DHT22;15937;50.612;6.656;2024-01-15T14:41:52;1.20;99.90
26270;DHT22;15937;50.612;6.656;2024-01-15T14:45:54;1.10;99.90
26270;DHT22;15937;50.612;6.656;2024-01-15T14:49:56;1.20;99.90
26270;DHT22;15937;50.612;6.656;2024-01-15T14:53:59;1.20;99.90
26270;DHT22;15937;50.612;6.656;2024-01-15T14:58:02;1.20;99.90
26270;DHT22;15937;50.612;6.656;2024-01-15T15:02:05;1.20;99.90
26270;DHT22;15937;50.612;6.656;2024-01-15T15:06:12;1.20;99.90
26270;DHT22;15937;50.612;6.656;2024-01-15T15:10:14;1.20;99.90
26270;DHT22;15937;50.612;6.656;2024-01-15T15:14:16;1.10;99.90
26270;DHT22;15937;50.612;6.656;2024-01-15T15:18:19;1.10;99.90
26270;DHT22;15937;50.612;6.656;2024-01-15T15:22:21;1.10;99.90
26270;DHT22;15937;50.612;6.656;2024-01-15T15:26:25;1.10;99.90
26270;DHT22;15937;50.612;6.656;2024-01-15T15:30:27;1.20;99.90
26270;DHT22;15937;50.612;6.656;2024-01-15T15:34:29;1.10;99.90
26270;DHT22;15937;50.612;6.656;2024-01-15T15:38:31;1.20;99.90
26270;DHT22;15937;50.612;6.656;2024-01-15T15:42:34;1.10;99.90
26270;DHT22;15937;50.612;6.656;2024-01-15T15:46:41;1.10;99.90
26270;DHT22;15937;50.612;6.656;2024-01-15T15:50:43;0.90;99.90
26270;DHT22;15937;50.612;6.656;2024-01-15T15:54:45;0.90;99.90
26270;DHT22;15937;50.612;6.656;2024-01-15T15:58:50;0.90;99.90
26270;DHT22;15937;50.612;6.656;2024-01-15T16:02:52;0.80;99.90
26270;DHT22;15937;50.612;6.656;2024-01-15T16:06:54;0.80;99.90
26270;DHT22;15937;50.612;6.656;2024-01-15T16:10:56;0.80;99.90
26270;DHT22;15937;50.612;6.656;2024-01-15T16:15:00;0.70;99.90
26270;DHT22;15937;50.612;6.656;2024-01-15T16:19:02;0.70;99.90
26270;DHT22;15937;50.612;6.656;2024-01-15T16:23:24;0.70;99.90
26270;DHT22;15937;50.612;6.656;2024-01-15T16:27:46;0.70;99.90
26270;DHT22;15937;50.612;6.656;2024-01-15T16:31:48;0.70;99.90
26270;DHT22;15937;50.612;6.656;2024-01-15T16:35:50;0.60;99.90
26270;DHT22;15937;50.612;6.656;2024-01-15T16:39:53;0.60;99.90
26270;DHT22;15937;50.612;6.656;2024-01-15T16:43:54;0.60;99.90
26270;DHT22;15937;50.612;6.656;2024-01-15T16:47:56;0.60;99.90
26270;DHT22;15937;50.612;6.656;2024-01-15T16:51:58;0.50;99.90
26270;DHT22;15937;50.612;6.656;2024-01-15T16:56:04;0.70;99.90
26270;DHT22;15937;50.612;6.656;2024-01-15T17:00:07;0.60;99.90
26270;DHT22;15937;50.612;6.656;2024-01-15T17:04:10;0.70;99.90
26270;DHT22;15937;50.612;6.656;2024-01-15T17:08:12;0.70;99.90
26270;DHT22;15937;50.612;6.656;2024-01-15T17:12:14;0.70;99.90
26270;DHT22;15937;50.612;6.656;2024-01-15T17:16:17;0.70;99.90
26270;DHT22;15937;50.612;6.656;2024-01-15T17:20:19;0.70;99.90
26270;DHT22;15937;50.612;6.656;2024-01-15T17:24:22;0.70;99.90
26270;DHT22;15937;50.612;6.656;2024-01-15T17:28:23;0.70;99.90
26270;DHT22;15937;50.612;6.656;2024-01-15T17:32:27;0.70;99.90
26270;DHT22;15937;50.612;6.656;2024-01-15T17:36:30;0.60;99.90
26270;DHT22;15937;50.612;6.656;2024-01-15T17:40:33;0.50;99.90
26270;DHT22;15937;50.612;6.656;2024-01-15T17:44:36;0.50;99.90
26270;DHT22;15937;50.612;6.656;2024-01-15T17:48:38;0.50;99.90
26270;DHT22;15937;50.612;6.656;2024-01-15T17:52:40;0.40;99.90
26270;DHT22;15937;50.612;6.656;2024-01-15T17:56:42;0.40;99.90
26270;DHT22;15937;50.612;6.656;2024-01-15T18:00:44;0.30;99.90
26270;DHT22;15937;50.612;6.656;2024-01-15T18:04:49;0.30;99.90
26270;DHT22;15937;50.612;6.656;2024-01-15T18:08:51;0.30;99.90
26270;DHT22;15937;50.612;6.656;2024-01-15T18:12:53;0.40;99.90
26270;DHT22;15937;50.612;6.656;2024-01-15T18:16:55;0.30;99.90
26270;DHT22;15937;50.612;6.656;2024-01-15T18:20:58;0.40;99.90
26270;DHT22;15937;50.612;6.656;2024-01-15T18:25:00;0.40;99.90
26270;DHT22;15937;50.612;6.656;2024-01-15T18:29:02;0.40;99.90
26270;DHT22;15937;50.612;6.656;2024-01-15T18:33:05;0.40;99.90
26270;DHT22;15937;50.612;6.656;2024-01-15T18:37:07;0.40;99.90
26270;DHT22;15937;50.612;6.656;2024-01-15T18:41:20;0.30;99.90
26270;DHT22;15937;50.612;6.656;2024-01-15T18:45:22;0.40;99.90
26270;DHT22;15937;50.612;6.656;2024-01-15T18:49:23;0.50;99.90
26270;DHT22;15937;50.612;6.656;2024-01-15T18:53:25;0.50;99.90
26270;DHT22;15937;50.612;6.656;2024-01-15T18:57:30;0.60;99.90
26270;DHT22;15937;50.612;6.656;2024-01-15T19:01:32;0.60;99.90
26270;DHT22;15937;50.612;6.656;2024-01-15T19:05:37;0.70;99.90
26270;DHT22;15937;50.612;6.656;2024-01-15T19:09:39;0.70;99.90
26270;DHT22;15937;50.612;6.656;2024-01-15T19:13:41;0.70;99.90
26270;DHT22;15937;50.612;6.656;2024-01-15T19:17:43;0.70;99.90
26270;DHT22;15937;50.612;6.656;2024-01-15T19:21:49;0.70;99.90
26270;DHT22;15937;50.612;6.656;2024-01-15T19:25:52;0.70;99.90
26270;DHT22;15937;50.612;6.656;2024-01-15T19:29:56;0.70;99.90
26270;DHT22;15937;50.612;6.656;2024-01-15T19:33:58;0.70;99.90
26270;DHT22;15937;50.612;6.656;2024-01-15T19:38:04;0.70;99.90
26270;DHT22;15937;50.612;6.656;2024-01-15T19:42:06;0.70;99.90
26270;DHT22;15937;50.612;6.656;2024-01-15T19:46:08;0.50;99.90
26270;DHT22;15937;50.612;6.656;2024-01-15T19:50:10;0.50;99.90
26270;DHT22;15937;50.612;6.656;2024-01-15T19:54:12;0.50;99.90
26270;DHT22;15937;50.612;6.656;2024-01-15T19:58:14;0.60;99.90
26270;DHT22;15937;50.612;6.656;2024-01-15T20:02:16;0.70;99.90
26270;DHT22;15937;50.612;6.656;2024-01-15T20:06:18;0.60;99.90
26270;DHT22;15937;50.612;6.656;2024-01-15T20:10:20;0.70;99.90
26270;DHT22;15937;50.612;6.656;2024-01-15T20:14:22;0.70;99.90
26270;DHT22;15937;50.612;6.656;2024-01-15T20:18:26;0.60;99.90
26270;DHT22;15937;50.612;6.656;2024-01-15T20:22:29;0.50;99.90
26270;DHT22;15937;50.612;6.656;2024-01-15T20:26:35;0.50;99.90
26270;DHT22;15937;50.612;6.656;2024-01-15T20:30:38;0.60;99.90
26270;DHT22;15937;50.612;6.656;2024-01-15T20:34:39;0.50;99.90
26270;DHT22;15937;50.612;6.656;2024-01-15T20:38:42;0.50;99.90
26270;DHT22;15937;50.612;6.656;2024-01-15T20:42:44;0.40;99.90
26270;DHT22;15937;50.612;6.656;2024-01-15T20:46:46;0.40;99.90
26270;DHT22;15937;50.612;6.656;2024-01-15T20:50:49;0.40;99.90
26270;DHT22;15937;50.612;6.656;2024-01-15T20:54:51;0.50;99.90
26270;DHT22;15937;50.612;6.656;2024-01-15T20:58:53;0.50;99.90
26270;DHT22;15937;50.612;6.656;2024-01-15T21:02:56;0.60;99.90
26270;DHT22;15937;50.612;6.656;2024-01-15T21:07:04;0.60;99.90
26270;DHT22;15937;50.612;6.656;2024-01-15T21:11:08;0.60;99.90
26270;DHT22;15937;50.612;6.656;2024-01-15T21:15:11;0.60;99.90
26270;DHT22;15937;50.612;6.656;2024-01-15T21:19:13;0.50;99.90
26270;DHT22;15937;50.612;6.656;2024-01-15T21:23:17;0.50;99.90
26270;DHT22;15937;50.612;6.656;2024-01-15T21:27:22;0.50;99.90
26270;DHT22;15937;50.612;6.656;2024-01-15T21:31:24;0.40;99.90
26270;DHT22;15937;50.612;6.656;2024-01-15T21:35:27;0.40;99.90
26270;DHT22;15937;50.612;6.656;2024-01-15T21:39:29;0.40;99.90
26270;DHT22;15937;50.612;6.656;2024-01-15T21:43:31;0.50;99.90
26270;DHT22;15937;50.612;6.656;2024-01-15T21:47:35;0.50;99.90
26270;DHT22;15937;50.612;6.656;2024-01-15T21:51:38;0.50;99.90
26270;DHT22;15937;50.612;6.656;2024-01-15T21:55:40;0.50;99.90
26270;DHT22;15937;50.612;6.656;2024-01-15T21:59:42;0.60;99.90
26270;DHT22;15937;50.612;6.656;2024-01-15T22:03:45;0.60;99.90
26270;DHT22;15937;50.612;6.656;2024-01-15T22:07:47;0.60;99.90
26270;DHT22;15937;50.612;6.656;2024-01-15T22:11:50;0.60;99.90
26270;DHT22;15937;50.612;6.656;2024-01-15T22:15:53;0.50;99.90
26270;DHT22;15937;50.612;6.656;2024-01-15T22:19:56;0.60;99.90
26270;DHT22;15937;50.612;6.656;2024-01-15T22:23:59;0.60;99.90
26270;DHT22;15937;50.612;6.656;2024-01-15T22:28:01;0.60;99.90
26270;DHT22;15937;50.612;6.656;2024-01-15T22:32:06;0.70;99.90
26270;DHT22;15937;50.612;6.656;2024-01-15T22:36:08;0.60;99.90
26270;DHT22;15937;50.612;6.656;2024-01-15T22:40:10;0.70;99.90
26270;DHT22;15937;50.612;6.656;2024-01-15T22:44:15;0.80;99.90
26270;DHT22;15937;50.612;6.656;2024-01-15T22:48:17;0.80;99.90
26270;DHT22;15937;50.612;6.656;2024-01-15T22:52:22;0.80;99.90
26270;DHT22;15937;50.612;6.656;2024-01-15T22:56:24;0.70;99.90
26270;DHT22;15937;50.612;6.656;2024-01-15T23:00:27;0.80;99.90
26270;DHT22;15937;50.612;6.656;2024-01-15T23:04:30;0.80;99.90
26270;DHT22;15937;50.612;6.656;2024-01-15T23:08:32;0.80;99.90
26270;DHT22;15937;50.612;6.656;2024-01-15T23:12:35;0.80;99.90
26270;DHT22;15937;50.612;6.656;2024-01-15T23:16:43;0.80;99.90
26270;DHT22;15937;50.612;6.656;2024-01-15T23:20:45;0.90;99.90
26270;DHT22;15937;50.612;6.656;2024-01-15T23:24:47;0.80;99.90
26270;DHT22;15937;50.612;6.656;2024-01-15T23:28:49;0.90;99.90
26270;DHT22;15937;50.612;6.656;2024-01-15T23:32:51;0.80;99.90
26270;DHT22;15937;50.612;6.656;2024-01-15T23:36:54;0.80;99.90
26270;DHT22;15937;50.612;6.656;2024-01-15T23:40:56;0.80;99.90
26270;DHT22;15937;50.612;6.656;2024-01-15T23:44:58;0.80;99.90
26270;DHT22;15937;50.612;6.656;2024-01-15T23:49:02;0.80;99.90
26270;DHT22;15937;50.612;6.656;2024-01-15T23:53:04;0.80;99.90
26270;DHT22;15937;50.612;6.656;2024-01-15T23:57:06;0.70;99.90
